sensor_id;sensor_type;location;lat;lon;timestamp;P1;durP1;ratioP1;P2;durP2;ratioP2
46745;SDS011;32493;50.514;9.678;2023-02-28T00:00:27;3.90;;;2.38;;
46745;SDS011;32493;50.514;9.678;2023-02-28T00:02:32;3.15;;;2.50;;
46745;SDS011;32493;50.514;9.678;2023-02-28T00:04:37;4.00;;;2.60;;
46745;SDS011;32493;50.514;9.678;2023-02-28T00:06:43;4.47;;;2.70;;
46745;SDS011;32493;50.514;9.678;2023-02-28T00:08:48;4.85;;;2.25;;
46745;SDS011;32493;50.514;9.678;2023-02-28T00:10:53;5.18;;;2.45;;
46745;SDS011;32493;50.514;9.678;2023-02-28T00:12:59;4.72;;;2.35;;
46745;SDS011;32493;50.514;9.678;2023-02-28T00:15:07;5.38;;;2.33;;
46745;SDS011;32493;50.514;9.678;2023-02-28T00:17:18;3.20;;;2.38;;
46745;SDS011;32493;50.514;9.678;2023-02-28T00:19:23;4.75;;;2.55;;
46745;SDS011;32493;50.514;9.678;2023-02-28T00:21:29;4.05;;;2.50;;
46745;SDS011;32493;50.514;9.678;2023-02-28T00:23:34;4.40;;;2.38;;
46745;SDS011;32493;50.514;9.678;2023-02-28T00:25:40;4.18;;;2.40;;
46745;SDS011;32493;50.514;9.678;2023-02-28T00:27:45;4.10;;;2.58;;
46745;SDS011;32493;50.514;9.678;2023-02-28T00:29:50;4.30;;;2.63;;
46745;SDS011;32493;50.514;9.678;2023-02-28T00:31:55;6.85;;;2.45;;
46745;SDS011;32493;50.514;9.678;2023-02-28T00:34:03;3.38;;;2.20;;
46745;SDS011;32493;50.514;9.678;2023-02-28T00:36:09;4.32;;;2.40;;
46745;SDS011;32493;50.514;9.678;2023-02-28T00:38:15;4.55;;;2.50;;
46745;SDS011;32493;50.514;9.678;2023-02-28T00:40:21;3.50;;;2.33;;
46745;SDS011;32493;50.514;9.678;2023-02-28T00:42:27;3.30;;;2.20;;
46745;SDS011;32493;50.514;9.678;2023-02-28T00:44:32;5.13;;;2.50;;
46745;SDS011;32493;50.514;9.678;2023-02-28T00:46:37;2.78;;;2.05;;
46745;SDS011;32493;50.514;9.678;2023-02-28T00:48:43;4.88;;;2.38;;
46745;SDS011;32493;50.514;9.678;2023-02-28T00:50:51;4.93;;;2.50;;
46745;SDS011;32493;50.514;9.678;2023-02-28T00:52:56;3.03;;;2.30;;
46745;SDS011;32493;50.514;9.678;2023-02-28T00:55:01;5.32;;;2.47;;
46745;SDS011;32493;50.514;9.678;2023-02-28T00:57:07;4.50;;;2.90;;
46745;SDS011;32493;50.514;9.678;2023-02-28T00:59:12;4.88;;;2.40;;
46745;SDS011;32493;50.514;9.678;2023-02-28T01:01:18;4.70;;;2.38;;
46745;SDS011;32493;50.514;9.678;2023-02-28T01:03:23;5.63;;;2.85;;
46745;SDS011;32493;50.514;9.678;2023-02-28T01:05:30;3.45;;;2.50;;
46745;SDS011;32493;50.514;9.678;2023-02-28T01:07:38;4.40;;;3.30;;
46745;SDS011;32493;50.514;9.678;2023-02-28T01:09:43;4.47;;;2.72;;
46745;SDS011;32493;50.514;9.678;2023-02-28T01:11:48;3.85;;;2.38;;
46745;SDS011;32493;50.514;9.678;2023-02-28T01:13:53;3.90;;;2.50;;
46745;SDS011;32493;50.514;9.678;2023-02-28T01:15:58;4.10;;;2.55;;
46745;SDS011;32493;50.514;9.678;2023-02-28T01:18:04;5.43;;;2.38;;
46745;SDS011;32493;50.514;9.678;2023-02-28T01:20:10;5.63;;;2.80;;
46745;SDS011;32493;50.514;9.678;2023-02-28T01:22:16;4.15;;;2.80;;
46745;SDS011;32493;50.514;9.678;2023-02-28T01:24:23;5.65;;;2.67;;
46745;SDS011;32493;50.514;9.678;2023-02-28T01:26:29;3.63;;;2.72;;
46745;SDS011;32493;50.514;9.678;2023-02-28T01:28:35;4.65;;;2.55;;
46745;SDS011;32493;50.514;9.678;2023-02-28T01:30:41;3.85;;;2.58;;
46745;SDS011;32493;50.514;9.678;2023-02-28T01:32:46;6.35;;;2.80;;
46745;SDS011;32493;50.514;9.678;2023-02-28T01:34:53;4.88;;;2.63;;
46745;SDS011;32493;50.514;9.678;2023-02-28T01:36:59;4.38;;;2.88;;
46745;SDS011;32493;50.514;9.678;2023-02-28T01:39:04;6.03;;;3.00;;
46745;SDS011;32493;50.514;9.678;2023-02-28T01:41:14;5.05;;;2.63;;
46745;SDS011;32493;50.514;9.678;2023-02-28T01:43:23;3.92;;;2.90;;
46745;SDS011;32493;50.514;9.678;2023-02-28T01:47:39;6.72;;;2.92;;
46745;SDS011;32493;50.514;9.678;2023-02-28T01:49:47;4.88;;;2.85;;
46745;SDS011;32493;50.514;9.678;2023-02-28T01:51:53;3.92;;;2.90;;
46745;SDS011;32493;50.514;9.678;2023-02-28T01:54:02;5.10;;;2.88;;
46745;SDS011;32493;50.514;9.678;2023-02-28T01:56:22;3.45;;;2.80;;
46745;SDS011;32493;50.514;9.678;2023-02-28T01:58:31;4.60;;;2.65;;
46745;SDS011;32493;50.514;9.678;2023-02-28T02:00:37;3.85;;;2.63;;
46745;SDS011;32493;50.514;9.678;2023-02-28T02:02:45;6.13;;;2.58;;
46745;SDS011;32493;50.514;9.678;2023-02-28T02:04:55;3.40;;;2.30;;
46745;SDS011;32493;50.514;9.678;2023-02-28T02:07:03;3.95;;;2.30;;
46745;SDS011;32493;50.514;9.678;2023-02-28T02:09:09;4.15;;;2.53;;
46745;SDS011;32493;50.514;9.678;2023-02-28T02:11:14;5.72;;;2.78;;
46745;SDS011;32493;50.514;9.678;2023-02-28T02:13:34;4.47;;;2.63;;
46745;SDS011;32493;50.514;9.678;2023-02-28T02:16:15;3.63;;;2.70;;
46745;SDS011;32493;50.514;9.678;2023-02-28T02:18:33;3.72;;;2.72;;
46745;SDS011;32493;50.514;9.678;2023-02-28T02:23:33;12.15;;;3.40;;
46745;SDS011;32493;50.514;9.678;2023-02-28T02:26:21;7.18;;;2.97;;
46745;SDS011;32493;50.514;9.678;2023-02-28T02:28:56;6.82;;;3.35;;
46745;SDS011;32493;50.514;9.678;2023-02-28T02:34:13;4.68;;;2.50;;
46745;SDS011;32493;50.514;9.678;2023-02-28T02:36:45;3.88;;;2.42;;
46745;SDS011;32493;50.514;9.678;2023-02-28T02:38:55;5.40;;;2.90;;
46745;SDS011;32493;50.514;9.678;2023-02-28T02:41:11;5.28;;;2.78;;
46745;SDS011;32493;50.514;9.678;2023-02-28T02:43:22;3.78;;;2.28;;
46745;SDS011;32493;50.514;9.678;2023-02-28T02:45:33;3.85;;;2.33;;
46745;SDS011;32493;50.514;9.678;2023-02-28T02:47:44;4.45;;;2.70;;
46745;SDS011;32493;50.514;9.678;2023-02-28T02:49:53;5.85;;;2.55;;
46745;SDS011;32493;50.514;9.678;2023-02-28T02:52:06;7.10;;;2.65;;
46745;SDS011;32493;50.514;9.678;2023-02-28T02:54:17;5.15;;;2.30;;
46745;SDS011;32493;50.514;9.678;2023-02-28T02:56:30;3.10;;;2.38;;
46745;SDS011;32493;50.514;9.678;2023-02-28T02:58:38;4.78;;;2.55;;
46745;SDS011;32493;50.514;9.678;2023-02-28T03:00:50;3.65;;;2.40;;
46745;SDS011;32493;50.514;9.678;2023-02-28T03:03:00;4.88;;;2.42;;
46745;SDS011;32493;50.514;9.678;2023-02-28T03:05:12;3.97;;;2.13;;
46745;SDS011;32493;50.514;9.678;2023-02-28T03:07:23;4.57;;;2.45;;
46745;SDS011;32493;50.514;9.678;2023-02-28T03:09:32;3.22;;;2.17;;
46745;SDS011;32493;50.514;9.678;2023-02-28T03:11:40;3.20;;;2.13;;
46745;SDS011;32493;50.514;9.678;2023-02-28T03:13:54;5.45;;;2.05;;
46745;SDS011;32493;50.514;9.678;2023-02-28T03:16:32;4.00;;;2.28;;
46745;SDS011;32493;50.514;9.678;2023-02-28T03:18:48;4.63;;;2.05;;
46745;SDS011;32493;50.514;9.678;2023-02-28T03:21:12;3.28;;;1.95;;
46745;SDS011;32493;50.514;9.678;2023-02-28T03:23:26;2.97;;;2.03;;
46745;SDS011;32493;50.514;9.678;2023-02-28T03:25:45;3.85;;;2.00;;
46745;SDS011;32493;50.514;9.678;2023-02-28T03:28:02;3.60;;;2.15;;
46745;SDS011;32493;50.514;9.678;2023-02-28T03:30:14;4.53;;;2.20;;
46745;SDS011;32493;50.514;9.678;2023-02-28T03:32:28;6.65;;;2.75;;
46745;SDS011;32493;50.514;9.678;2023-02-28T03:34:41;3.10;;;2.05;;
46745;SDS011;32493;50.514;9.678;2023-02-28T03:36:55;6.95;;;2.30;;
46745;SDS011;32493;50.514;9.678;2023-02-28T03:39:07;5.10;;;2.50;;
46745;SDS011;32493;50.514;9.678;2023-02-28T03:41:18;3.50;;;2.15;;
46745;SDS011;32493;50.514;9.678;2023-02-28T03:43:28;4.30;;;2.10;;
46745;SDS011;32493;50.514;9.678;2023-02-28T03:45:40;4.78;;;2.30;;
46745;SDS011;32493;50.514;9.678;2023-02-28T03:47:50;4.63;;;2.30;;
46745;SDS011;32493;50.514;9.678;2023-02-28T03:49:59;3.35;;;2.20;;
46745;SDS011;32493;50.514;9.678;2023-02-28T03:52:12;3.85;;;2.20;;
46745;SDS011;32493;50.514;9.678;2023-02-28T03:54:19;4.05;;;2.33;;
46745;SDS011;32493;50.514;9.678;2023-02-28T03:56:31;5.68;;;2.42;;
46745;SDS011;32493;50.514;9.678;2023-02-28T03:58:42;3.35;;;2.38;;
46745;SDS011;32493;50.514;9.678;2023-02-28T04:00:55;4.10;;;2.10;;
46745;SDS011;32493;50.514;9.678;2023-02-28T04:03:09;4.82;;;2.28;;
46745;SDS011;32493;50.514;9.678;2023-02-28T04:05:14;4.07;;;2.33;;
46745;SDS011;32493;50.514;9.678;2023-02-28T04:07:22;4.00;;;2.25;;
46745;SDS011;32493;50.514;9.678;2023-02-28T04:09:28;4.50;;;2.38;;
46745;SDS011;32493;50.514;9.678;2023-02-28T04:11:34;3.85;;;2.10;;
46745;SDS011;32493;50.514;9.678;2023-02-28T04:13:42;5.15;;;2.53;;
46745;SDS011;32493;50.514;9.678;2023-02-28T04:15:48;5.68;;;2.60;;
46745;SDS011;32493;50.514;9.678;2023-02-28T04:17:53;5.22;;;2.30;;
46745;SDS011;32493;50.514;9.678;2023-02-28T04:19:58;5.07;;;2.53;;
46745;SDS011;32493;50.514;9.678;2023-02-28T04:22:05;4.20;;;2.35;;
46745;SDS011;32493;50.514;9.678;2023-02-28T04:24:13;5.22;;;2.55;;
46745;SDS011;32493;50.514;9.678;2023-02-28T04:26:20;5.32;;;2.67;;
46745;SDS011;32493;50.514;9.678;2023-02-28T04:28:26;3.75;;;2.42;;
46745;SDS011;32493;50.514;9.678;2023-02-28T04:30:31;3.58;;;2.60;;
46745;SDS011;32493;50.514;9.678;2023-02-28T04:32:38;4.88;;;2.63;;
46745;SDS011;32493;50.514;9.678;2023-02-28T04:34:43;5.32;;;3.08;;
46745;SDS011;32493;50.514;9.678;2023-02-28T04:36:49;5.05;;;3.10;;
46745;SDS011;32493;50.514;9.678;2023-02-28T04:39:15;6.40;;;2.97;;
46745;SDS011;32493;50.514;9.678;2023-02-28T04:41:21;5.78;;;2.60;;
46745;SDS011;32493;50.514;9.678;2023-02-28T04:43:31;5.38;;;2.88;;
46745;SDS011;32493;50.514;9.678;2023-02-28T04:45:37;7.35;;;3.35;;
46745;SDS011;32493;50.514;9.678;2023-02-28T04:47:42;4.50;;;3.13;;
46745;SDS011;32493;50.514;9.678;2023-02-28T04:49:47;4.78;;;2.60;;
46745;SDS011;32493;50.514;9.678;2023-02-28T04:51:52;6.60;;;2.97;;
46745;SDS011;32493;50.514;9.678;2023-02-28T04:53:57;4.03;;;2.58;;
46745;SDS011;32493;50.514;9.678;2023-02-28T04:56:06;5.97;;;3.10;;
46745;SDS011;32493;50.514;9.678;2023-02-28T04:58:14;5.93;;;3.05;;
46745;SDS011;32493;50.514;9.678;2023-02-28T05:00:21;6.22;;;2.90;;
46745;SDS011;32493;50.514;9.678;2023-02-28T05:02:27;7.20;;;3.13;;
46745;SDS011;32493;50.514;9.678;2023-02-28T05:04:32;5.68;;;2.85;;
46745;SDS011;32493;50.514;9.678;2023-02-28T05:06:38;4.43;;;2.72;;
46745;SDS011;32493;50.514;9.678;2023-02-28T05:08:44;6.55;;;3.60;;
46745;SDS011;32493;50.514;9.678;2023-02-28T05:10:49;5.38;;;3.30;;
46745;SDS011;32493;50.514;9.678;2023-02-28T05:12:57;6.95;;;3.20;;
46745;SDS011;32493;50.514;9.678;2023-02-28T05:17:08;5.45;;;2.80;;
46745;SDS011;32493;50.514;9.678;2023-02-28T05:19:14;6.25;;;3.55;;
46745;SDS011;32493;50.514;9.678;2023-02-28T05:21:23;6.15;;;3.65;;
46745;SDS011;32493;50.514;9.678;2023-02-28T05:23:33;6.22;;;3.67;;
46745;SDS011;32493;50.514;9.678;2023-02-28T05:25:38;5.80;;;3.50;;
46745;SDS011;32493;50.514;9.678;2023-02-28T05:27:44;8.50;;;3.33;;
46745;SDS011;32493;50.514;9.678;2023-02-28T05:29:53;5.47;;;3.65;;
46745;SDS011;32493;50.514;9.678;2023-02-28T05:31:58;7.80;;;3.60;;
46745;SDS011;32493;50.514;9.678;2023-02-28T05:34:03;6.35;;;3.85;;
46745;SDS011;32493;50.514;9.678;2023-02-28T05:36:09;6.80;;;4.00;;
46745;SDS011;32493;50.514;9.678;2023-02-28T05:38:15;9.57;;;4.13;;
46745;SDS011;32493;50.514;9.678;2023-02-28T05:40:20;6.28;;;3.92;;
46745;SDS011;32493;50.514;9.678;2023-02-28T05:42:28;8.13;;;4.10;;
46745;SDS011;32493;50.514;9.678;2023-02-28T05:44:33;7.72;;;4.32;;
46745;SDS011;32493;50.514;9.678;2023-02-28T05:46:41;8.90;;;4.20;;
46745;SDS011;32493;50.514;9.678;2023-02-28T05:48:47;6.88;;;4.10;;
46745;SDS011;32493;50.514;9.678;2023-02-28T05:50:52;7.32;;;4.03;;
46745;SDS011;32493;50.514;9.678;2023-02-28T05:52:57;9.70;;;4.43;;
46745;SDS011;32493;50.514;9.678;2023-02-28T05:55:02;5.68;;;3.80;;
46745;SDS011;32493;50.514;9.678;2023-02-28T05:57:10;10.00;;;4.60;;
46745;SDS011;32493;50.514;9.678;2023-02-28T05:59:25;6.68;;;4.03;;
46745;SDS011;32493;50.514;9.678;2023-02-28T06:01:31;7.60;;;4.53;;
46745;SDS011;32493;50.514;9.678;2023-02-28T06:03:42;6.82;;;4.22;;
46745;SDS011;32493;50.514;9.678;2023-02-28T06:05:47;7.60;;;4.00;;
46745;SDS011;32493;50.514;9.678;2023-02-28T06:07:53;8.60;;;4.95;;
46745;SDS011;32493;50.514;9.678;2023-02-28T06:09:58;9.70;;;4.82;;
46745;SDS011;32493;50.514;9.678;2023-02-28T06:12:04;7.82;;;4.45;;
46745;SDS011;32493;50.514;9.678;2023-02-28T06:14:12;8.80;;;5.03;;
46745;SDS011;32493;50.514;9.678;2023-02-28T06:16:21;8.68;;;4.90;;
46745;SDS011;32493;50.514;9.678;2023-02-28T06:18:26;8.32;;;4.38;;
46745;SDS011;32493;50.514;9.678;2023-02-28T06:20:34;8.23;;;4.57;;
46745;SDS011;32493;50.514;9.678;2023-02-28T06:22:39;7.90;;;4.80;;
46745;SDS011;32493;50.514;9.678;2023-02-28T06:24:44;8.38;;;4.75;;
46745;SDS011;32493;50.514;9.678;2023-02-28T06:26:50;11.57;;;5.10;;
46745;SDS011;32493;50.514;9.678;2023-02-28T06:28:55;8.95;;;4.90;;
46745;SDS011;32493;50.514;9.678;2023-02-28T06:31:05;9.60;;;5.28;;
46745;SDS011;32493;50.514;9.678;2023-02-28T06:33:12;8.82;;;5.25;;
46745;SDS011;32493;50.514;9.678;2023-02-28T06:35:17;13.15;;;5.47;;
46745;SDS011;32493;50.514;9.678;2023-02-28T06:37:25;9.05;;;5.22;;
46745;SDS011;32493;50.514;9.678;2023-02-28T06:39:31;8.32;;;4.82;;
46745;SDS011;32493;50.514;9.678;2023-02-28T06:41:37;8.18;;;5.20;;
46745;SDS011;32493;50.514;9.678;2023-02-28T06:43:55;11.90;;;7.75;;
46745;SDS011;32493;50.514;9.678;2023-02-28T06:46:01;9.15;;;5.38;;
46745;SDS011;32493;50.514;9.678;2023-02-28T06:48:09;11.35;;;5.55;;
46745;SDS011;32493;50.514;9.678;2023-02-28T06:50:15;11.00;;;6.07;;
46745;SDS011;32493;50.514;9.678;2023-02-28T06:52:25;12.60;;;6.03;;
46745;SDS011;32493;50.514;9.678;2023-02-28T06:54:30;11.30;;;6.07;;
46745;SDS011;32493;50.514;9.678;2023-02-28T06:56:36;12.10;;;5.40;;
46745;SDS011;32493;50.514;9.678;2023-02-28T06:58:42;11.27;;;6.15;;
46745;SDS011;32493;50.514;9.678;2023-02-28T07:00:50;10.43;;;5.88;;
46745;SDS011;32493;50.514;9.678;2023-02-28T07:02:58;11.65;;;6.25;;
46745;SDS011;32493;50.514;9.678;2023-02-28T07:05:03;10.50;;;5.50;;
46745;SDS011;32493;50.514;9.678;2023-02-28T07:07:09;11.80;;;6.85;;
46745;SDS011;32493;50.514;9.678;2023-02-28T07:09:17;10.15;;;6.03;;
46745;SDS011;32493;50.514;9.678;2023-02-28T07:13:31;11.10;;;5.85;;
46745;SDS011;32493;50.514;9.678;2023-02-28T07:15:36;15.80;;;6.97;;
46745;SDS011;32493;50.514;9.678;2023-02-28T07:17:45;11.50;;;6.57;;
46745;SDS011;32493;50.514;9.678;2023-02-28T07:19:50;10.20;;;6.10;;
46745;SDS011;32493;50.514;9.678;2023-02-28T07:21:55;17.85;;;5.95;;
46745;SDS011;32493;50.514;9.678;2023-02-28T07:24:01;13.18;;;6.93;;
46745;SDS011;32493;50.514;9.678;2023-02-28T07:26:11;10.60;;;5.72;;
46745;SDS011;32493;50.514;9.678;2023-02-28T07:28:20;19.23;;;9.52;;
46745;SDS011;32493;50.514;9.678;2023-02-28T07:30:26;12.77;;;6.60;;
46745;SDS011;32493;50.514;9.678;2023-02-28T07:32:32;10.60;;;6.00;;
46745;SDS011;32493;50.514;9.678;2023-02-28T07:34:39;9.88;;;5.63;;
46745;SDS011;32493;50.514;9.678;2023-02-28T07:36:47;14.38;;;6.10;;
46745;SDS011;32493;50.514;9.678;2023-02-28T07:38:54;11.02;;;6.40;;
46745;SDS011;32493;50.514;9.678;2023-02-28T07:41:00;8.80;;;5.43;;
46745;SDS011;32493;50.514;9.678;2023-02-28T07:43:11;9.88;;;5.45;;
46745;SDS011;32493;50.514;9.678;2023-02-28T07:45:16;10.05;;;5.70;;
46745;SDS011;32493;50.514;9.678;2023-02-28T07:47:21;10.88;;;5.55;;
46745;SDS011;32493;50.514;9.678;2023-02-28T07:49:27;12.32;;;6.00;;
46745;SDS011;32493;50.514;9.678;2023-02-28T07:51:34;12.43;;;5.53;;
46745;SDS011;32493;50.514;9.678;2023-02-28T07:53:39;8.38;;;5.53;;
46745;SDS011;32493;50.514;9.678;2023-02-28T07:55:44;8.10;;;5.20;;
46745;SDS011;32493;50.514;9.678;2023-02-28T07:57:51;10.63;;;5.70;;
46745;SDS011;32493;50.514;9.678;2023-02-28T07:59:58;11.90;;;5.40;;
46745;SDS011;32493;50.514;9.678;2023-02-28T08:02:11;10.35;;;5.50;;
46745;SDS011;32493;50.514;9.678;2023-02-28T08:04:18;9.52;;;5.03;;
46745;SDS011;32493;50.514;9.678;2023-02-28T08:06:23;11.50;;;5.40;;
46745;SDS011;32493;50.514;9.678;2023-02-28T08:08:29;8.48;;;5.22;;
46745;SDS011;32493;50.514;9.678;2023-02-28T08:10:36;8.18;;;4.82;;
46745;SDS011;32493;50.514;9.678;2023-02-28T08:12:41;11.10;;;5.72;;
46745;SDS011;32493;50.514;9.678;2023-02-28T08:14:46;9.55;;;4.82;;
46745;SDS011;32493;50.514;9.678;2023-02-28T08:16:53;9.75;;;5.32;;
46745;SDS011;32493;50.514;9.678;2023-02-28T08:18:59;8.10;;;4.85;;
46745;SDS011;32493;50.514;9.678;2023-02-28T08:21:07;7.35;;;4.18;;
46745;SDS011;32493;50.514;9.678;2023-02-28T08:23:13;6.90;;;3.95;;
46745;SDS011;32493;50.514;9.678;2023-02-28T08:25:19;6.28;;;3.97;;
46745;SDS011;32493;50.514;9.678;2023-02-28T08:27:25;8.93;;;4.00;;
46745;SDS011;32493;50.514;9.678;2023-02-28T08:29:30;6.25;;;4.25;;
46745;SDS011;32493;50.514;9.678;2023-02-28T08:31:35;8.68;;;4.40;;
46745;SDS011;32493;50.514;9.678;2023-02-28T08:33:43;8.60;;;4.28;;
46745;SDS011;32493;50.514;9.678;2023-02-28T08:35:52;6.65;;;4.10;;
46745;SDS011;32493;50.514;9.678;2023-02-28T08:37:58;9.02;;;5.20;;
46745;SDS011;32493;50.514;9.678;2023-02-28T08:40:04;5.78;;;3.92;;
46745;SDS011;32493;50.514;9.678;2023-02-28T08:42:11;7.18;;;4.28;;
46745;SDS011;32493;50.514;9.678;2023-02-28T08:44:16;7.45;;;3.75;;
46745;SDS011;32493;50.514;9.678;2023-02-28T08:46:21;6.35;;;3.75;;
46745;SDS011;32493;50.514;9.678;2023-02-28T08:48:27;7.63;;;3.97;;
46745;SDS011;32493;50.514;9.678;2023-02-28T08:54:47;9.80;;;3.95;;
46745;SDS011;32493;50.514;9.678;2023-02-28T08:56:53;5.82;;;3.35;;
46745;SDS011;32493;50.514;9.678;2023-02-28T08:58:57;6.82;;;3.67;;
46745;SDS011;32493;50.514;9.678;2023-02-28T09:01:07;4.93;;;3.28;;
46745;SDS011;32493;50.514;9.678;2023-02-28T09:03:16;6.05;;;3.45;;
46745;SDS011;32493;50.514;9.678;2023-02-28T09:05:24;13.68;;;4.57;;
46745;SDS011;32493;50.514;9.678;2023-02-28T09:07:33;4.10;;;2.97;;
46745;SDS011;32493;50.514;9.678;2023-02-28T09:09:38;5.78;;;3.33;;
46745;SDS011;32493;50.514;9.678;2023-02-28T09:11:55;6.00;;;3.22;;
46745;SDS011;32493;50.514;9.678;2023-02-28T09:14:01;6.00;;;3.40;;
46745;SDS011;32493;50.514;9.678;2023-02-28T09:16:08;5.70;;;3.72;;
46745;SDS011;32493;50.514;9.678;2023-02-28T09:18:17;4.88;;;3.53;;
46745;SDS011;32493;50.514;9.678;2023-02-28T09:20:23;6.20;;;3.60;;
46745;SDS011;32493;50.514;9.678;2023-02-28T09:22:28;6.03;;;3.55;;
46745;SDS011;32493;50.514;9.678;2023-02-28T09:24:36;7.45;;;4.00;;
46745;SDS011;32493;50.514;9.678;2023-02-28T09:26:42;6.78;;;4.35;;
46745;SDS011;32493;50.514;9.678;2023-02-28T09:29:04;5.97;;;3.50;;
46745;SDS011;32493;50.514;9.678;2023-02-28T09:31:13;9.43;;;4.30;;
46745;SDS011;32493;50.514;9.678;2023-02-28T09:33:22;7.85;;;4.57;;
46745;SDS011;32493;50.514;9.678;2023-02-28T09:35:28;6.30;;;3.83;;
46745;SDS011;32493;50.514;9.678;2023-02-28T09:37:33;7.88;;;4.28;;
46745;SDS011;32493;50.514;9.678;2023-02-28T09:39:41;7.25;;;4.07;;
46745;SDS011;32493;50.514;9.678;2023-02-28T09:43:55;7.70;;;4.38;;
46745;SDS011;32493;50.514;9.678;2023-02-28T09:46:06;9.10;;;3.95;;
46745;SDS011;32493;50.514;9.678;2023-02-28T09:48:23;6.45;;;4.03;;
46745;SDS011;32493;50.514;9.678;2023-02-28T09:50:34;5.15;;;3.65;;
46745;SDS011;32493;50.514;9.678;2023-02-28T09:52:43;6.70;;;4.38;;
46745;SDS011;32493;50.514;9.678;2023-02-28T09:54:55;6.80;;;4.20;;
46745;SDS011;32493;50.514;9.678;2023-02-28T09:59:22;9.82;;;4.13;;
46745;SDS011;32493;50.514;9.678;2023-02-28T10:01:50;5.80;;;3.50;;
46745;SDS011;32493;50.514;9.678;2023-02-28T10:04:03;7.20;;;4.35;;
46745;SDS011;32493;50.514;9.678;2023-02-28T10:06:16;7.53;;;4.18;;
46745;SDS011;32493;50.514;9.678;2023-02-28T10:08:25;6.75;;;4.22;;
46745;SDS011;32493;50.514;9.678;2023-02-28T10:10:37;7.10;;;3.97;;
46745;SDS011;32493;50.514;9.678;2023-02-28T10:12:46;7.18;;;4.03;;
46745;SDS011;32493;50.514;9.678;2023-02-28T10:14:55;8.93;;;4.60;;
46745;SDS011;32493;50.514;9.678;2023-02-28T10:17:04;7.25;;;4.57;;
46745;SDS011;32493;50.514;9.678;2023-02-28T10:19:17;7.75;;;4.18;;
46745;SDS011;32493;50.514;9.678;2023-02-28T10:21:35;6.30;;;4.07;;
46745;SDS011;32493;50.514;9.678;2023-02-28T10:23:47;10.00;;;4.38;;
46745;SDS011;32493;50.514;9.678;2023-02-28T10:25:57;8.80;;;4.30;;
46745;SDS011;32493;50.514;9.678;2023-02-28T10:28:08;7.22;;;4.28;;
46745;SDS011;32493;50.514;9.678;2023-02-28T10:30:16;8.07;;;4.57;;
46745;SDS011;32493;50.514;9.678;2023-02-28T10:32:22;7.60;;;4.30;;
46745;SDS011;32493;50.514;9.678;2023-02-28T10:34:30;7.50;;;4.75;;
46745;SDS011;32493;50.514;9.678;2023-02-28T10:36:35;7.45;;;4.70;;
46745;SDS011;32493;50.514;9.678;2023-02-28T10:38:40;7.05;;;4.45;;
46745;SDS011;32493;50.514;9.678;2023-02-28T10:40:45;8.30;;;4.38;;
46745;SDS011;32493;50.514;9.678;2023-02-28T10:42:57;9.50;;;4.20;;
46745;SDS011;32493;50.514;9.678;2023-02-28T10:45:05;9.07;;;5.07;;
46745;SDS011;32493;50.514;9.678;2023-02-28T10:47:15;6.53;;;4.07;;
46745;SDS011;32493;50.514;9.678;2023-02-28T10:51:34;8.05;;;4.70;;
46745;SDS011;32493;50.514;9.678;2023-02-28T10:53:46;7.60;;;4.20;;
46745;SDS011;32493;50.514;9.678;2023-02-28T10:56:02;6.72;;;4.15;;
46745;SDS011;32493;50.514;9.678;2023-02-28T10:58:22;5.18;;;3.40;;
46745;SDS011;32493;50.514;9.678;2023-02-28T11:00:31;9.10;;;5.13;;
46745;SDS011;32493;50.514;9.678;2023-02-28T11:02:39;9.18;;;4.10;;
46745;SDS011;32493;50.514;9.678;2023-02-28T11:04:46;6.05;;;4.22;;
46745;SDS011;32493;50.514;9.678;2023-02-28T11:06:56;8.52;;;4.50;;
46745;SDS011;32493;50.514;9.678;2023-02-28T11:09:03;9.90;;;5.40;;
46745;SDS011;32493;50.514;9.678;2023-02-28T11:11:21;7.57;;;4.75;;
46745;SDS011;32493;50.514;9.678;2023-02-28T11:13:35;8.68;;;4.35;;
46745;SDS011;32493;50.514;9.678;2023-02-28T11:15:41;10.30;;;4.72;;
46745;SDS011;32493;50.514;9.678;2023-02-28T11:17:54;5.50;;;3.85;;
46745;SDS011;32493;50.514;9.678;2023-02-28T11:20:01;6.57;;;4.07;;
46745;SDS011;32493;50.514;9.678;2023-02-28T11:22:09;9.00;;;4.20;;
46745;SDS011;32493;50.514;9.678;2023-02-28T11:24:15;5.97;;;3.63;;
46745;SDS011;32493;50.514;9.678;2023-02-28T11:26:37;7.72;;;4.65;;
46745;SDS011;32493;50.514;9.678;2023-02-28T11:28:48;7.63;;;4.13;;
46745;SDS011;32493;50.514;9.678;2023-02-28T11:31:16;5.88;;;4.15;;
46745;SDS011;32493;50.514;9.678;2023-02-28T11:33:26;12.35;;;5.88;;
46745;SDS011;32493;50.514;9.678;2023-02-28T11:35:33;8.32;;;4.15;;
46745;SDS011;32493;50.514;9.678;2023-02-28T11:37:42;7.75;;;4.35;;
46745;SDS011;32493;50.514;9.678;2023-02-28T11:39:48;7.25;;;4.63;;
46745;SDS011;32493;50.514;9.678;2023-02-28T11:42:05;7.30;;;4.40;;
46745;SDS011;32493;50.514;9.678;2023-02-28T11:44:36;8.43;;;5.27;;
46745;SDS011;32493;50.514;9.678;2023-02-28T11:46:54;7.53;;;4.57;;
46745;SDS011;32493;50.514;9.678;2023-02-28T11:49:07;8.27;;;5.38;;
46745;SDS011;32493;50.514;9.678;2023-02-28T11:51:33;9.93;;;4.90;;
46745;SDS011;32493;50.514;9.678;2023-02-28T11:56:32;10.35;;;6.35;;
46745;SDS011;32493;50.514;9.678;2023-02-28T11:58:44;10.45;;;5.05;;
46745;SDS011;32493;50.514;9.678;2023-02-28T12:01:08;12.93;;;6.50;;
46745;SDS011;32493;50.514;9.678;2023-02-28T12:03:42;7.05;;;4.65;;
46745;SDS011;32493;50.514;9.678;2023-02-28T12:05:53;12.90;;;6.22;;
46745;SDS011;32493;50.514;9.678;2023-02-28T12:08:17;8.95;;;5.22;;
46745;SDS011;32493;50.514;9.678;2023-02-28T12:10:38;8.27;;;4.50;;
46745;SDS011;32493;50.514;9.678;2023-02-28T12:13:02;10.27;;;5.13;;
46745;SDS011;32493;50.514;9.678;2023-02-28T12:15:23;7.68;;;4.70;;
46745;SDS011;32493;50.514;9.678;2023-02-28T12:17:59;6.85;;;3.75;;
46745;SDS011;32493;50.514;9.678;2023-02-28T12:20:23;8.60;;;4.53;;
46745;SDS011;32493;50.514;9.678;2023-02-28T12:22:38;8.48;;;4.90;;
46745;SDS011;32493;50.514;9.678;2023-02-28T12:25:13;9.05;;;4.80;;
46745;SDS011;32493;50.514;9.678;2023-02-28T12:27:45;9.50;;;4.90;;
46745;SDS011;32493;50.514;9.678;2023-02-28T12:29:55;12.20;;;6.00;;
46745;SDS011;32493;50.514;9.678;2023-02-28T12:32:06;8.75;;;5.68;;
46745;SDS011;32493;50.514;9.678;2023-02-28T12:34:22;8.27;;;5.53;;
46745;SDS011;32493;50.514;9.678;2023-02-28T12:36:32;8.68;;;5.25;;
46745;SDS011;32493;50.514;9.678;2023-02-28T12:38:40;7.47;;;4.73;;
46745;SDS011;32493;50.514;9.678;2023-02-28T12:40:49;9.57;;;4.72;;
46745;SDS011;32493;50.514;9.678;2023-02-28T12:42:59;10.43;;;4.72;;
46745;SDS011;32493;50.514;9.678;2023-02-28T12:45:11;6.03;;;4.38;;
46745;SDS011;32493;50.514;9.678;2023-02-28T12:47:22;9.30;;;4.65;;
46745;SDS011;32493;50.514;9.678;2023-02-28T12:49:31;33.10;;;11.23;;
46745;SDS011;32493;50.514;9.678;2023-02-28T12:51:43;49.50;;;14.20;;
46745;SDS011;32493;50.514;9.678;2023-02-28T12:53:52;17.38;;;6.97;;
46745;SDS011;32493;50.514;9.678;2023-02-28T12:56:09;18.90;;;6.88;;
46745;SDS011;32493;50.514;9.678;2023-02-28T12:58:24;13.23;;;5.50;;
46745;SDS011;32493;50.514;9.678;2023-02-28T13:00:38;15.20;;;6.72;;
46745;SDS011;32493;50.514;9.678;2023-02-28T13:03:07;6.63;;;4.45;;
46745;SDS011;32493;50.514;9.678;2023-02-28T13:11:03;10.38;;;5.40;;
46745;SDS011;32493;50.514;9.678;2023-02-28T13:13:22;6.78;;;4.63;;
46745;SDS011;32493;50.514;9.678;2023-02-28T13:15:31;9.63;;;4.55;;
46745;SDS011;32493;50.514;9.678;2023-02-28T13:17:41;6.43;;;4.15;;
46745;SDS011;32493;50.514;9.678;2023-02-28T13:19:56;7.65;;;4.68;;
46745;SDS011;32493;50.514;9.678;2023-02-28T13:22:09;6.85;;;4.78;;
46745;SDS011;32493;50.514;9.678;2023-02-28T13:29:42;7.35;;;4.78;;
46745;SDS011;32493;50.514;9.678;2023-02-28T13:34:34;6.78;;;5.00;;
46745;SDS011;32493;50.514;9.678;2023-02-28T13:36:40;7.90;;;4.40;;
46745;SDS011;32493;50.514;9.678;2023-02-28T13:38:48;6.15;;;5.18;;